Station Historical Data
Daily Summary for March 29, 2017 Units:  Metric    English   Both
« Previous Day
Next Day »
Daily Weekly Monthly Yearly Custom
  High: Low: Average:
Temperature: 11.6 °C -0.1 °C 6.3 °C
Dew Point: 3.4 °C -2.2 °C 0.2 °C
Humidity: 89% 46% 67%
Wind Speed: 17.7km/h 0km/h 4.2km/h
Wind Gust: 22.5km/h - -
Wind- - SSE
Pressure: 1026.3 hPa 1021.2 hPa -
Precipitation: 0 mm    
Historical Graphs
 
 
Tabular Data for March 29, 2017
Time Temperature Dew Point Pressure Wind Wind Speed Wind Gust Humidity Rainfall Rate (Hourly)
00:04 5.7 °C 2.5 °C 1021.2 hPa NNW 9.7 km/h 16.1 km/h 80% 0 mm
00:09 5.7 °C 2.5 °C 1021.2 hPa NW 3.2 km/h 12.9 km/h 80% 0 mm
00:14 5.6 °C 2.4 °C 1021.2 hPa NNW 6.4 km/h 12.9 km/h 80% 0 mm
00:19 5.5 °C 2.2 °C 1021.2 hPa NNW 6.4 km/h 14.5 km/h 79% 0 mm
00:24 5.5 °C 2.2 °C 1021.6 hPa NNW 8 km/h 14.5 km/h 79% 0 mm
00:29 5.4 °C 2.1 °C 1021.6 hPa NNW 6.4 km/h 12.9 km/h 79% 0 mm
00:34 5.4 °C 2.1 °C 1021.6 hPa North 6.4 km/h 11.3 km/h 79% 0 mm
00:39 5.4 °C 2.3 °C 1021.6 hPa North 4.8 km/h 11.3 km/h 80% 0 mm
00:44 5.4 °C 2.2 °C 1021.6 hPa NNW 4.8 km/h 12.9 km/h 80% 0 mm
00:49 5.4 °C 2.2 °C 1021.6 hPa NNW 3.2 km/h 9.7 km/h 80% 0 mm
00:54 5.4 °C 2.2 °C 1021.6 hPa NNW 6.4 km/h 11.3 km/h 80% 0 mm
00:59 5.3 °C 2.2 °C 1021.6 hPa North 9.7 km/h 12.9 km/h 80% 0 mm
01:04 5.3 °C 2.1 °C 1021.6 hPa NNW 4.8 km/h 9.7 km/h 80% 0 mm
01:09 5.3 °C 2.1 °C 1021.6 hPa NNW 8 km/h 9.7 km/h 80% 0 mm
01:14 5.2 °C 2.1 °C 1021.6 hPa NNW 3.2 km/h 11.3 km/h 80% 0 mm
01:19 5.2 °C 2.2 °C 1021.6 hPa NNW 3.2 km/h 11.3 km/h 81% 0 mm
01:24 5.2 °C 2.2 °C 1021.6 hPa NNW 3.2 km/h 11.3 km/h 81% 0 mm
01:29 5.2 °C 2.2 °C 1021.6 hPa NNW 4.8 km/h 11.3 km/h 81% 0 mm
01:34 5.1 °C 2.1 °C 1021.9 hPa NNW 3.2 km/h 14.5 km/h 81% 0 mm
01:39 5.1 °C 1.9 °C 1021.6 hPa North 4.8 km/h 14.5 km/h 80% 0 mm
01:44 4.9 °C 1.8 °C 1021.6 hPa NNW 6.4 km/h 11.3 km/h 80% 0 mm
01:49 4.8 °C 1.7 °C 1021.6 hPa NNW 6.4 km/h 11.3 km/h 80% 0 mm
01:54 4.8 °C 1.6 °C 1021.6 hPa NNW 3.2 km/h 8 km/h 80% 0 mm
01:59 4.7 °C 1.6 °C 1021.6 hPa North 1.6 km/h 8 km/h 80% 0 mm
02:04 4.6 °C 1.4 °C 1021.6 hPa NNW 1.6 km/h 6.4 km/h 80% 0 mm
02:09 4.5 °C 1.3 °C 1021.6 hPa NNW 1.6 km/h 3.2 km/h 80% 0 mm
02:14 4.4 °C 1.4 °C 1021.6 hPa NNW 1.6 km/h 3.2 km/h 81% 0 mm
02:19 4.3 °C 1.3 °C 1021.9 hPa NW 1.6 km/h 4.8 km/h 81% 0 mm
02:24 4.3 °C 1.3 °C 1021.9 hPa NNW 1.6 km/h 6.4 km/h 81% 0 mm
02:29 4.3 °C 1.3 °C 1021.9 hPa NNW 1.6 km/h 6.4 km/h 81% 0 mm
02:34 4.2 °C 1.2 °C 1021.9 hPa NNW 1.6 km/h 6.4 km/h 81% 0 mm
02:39 4.2 °C 1.2 °C 1022.2 hPa NNW 1.6 km/h 4.8 km/h 81% 0 mm
02:44 4.2 °C 1.2 °C 1022.2 hPa NNW 1.6 km/h 6.4 km/h 81% 0 mm
02:49 4.3 °C 1.3 °C 1022.6 hPa NW 1.6 km/h 6.4 km/h 81% 0 mm
02:54 4.3 °C 1.3 °C 1022.6 hPa NNW 3.2 km/h 12.9 km/h 81% 0 mm
02:59 4.3 °C 1.2 °C 1022.6 hPa NNW 4.8 km/h 12.9 km/h 80% 0 mm
03:04 4.3 °C 1.1 °C 1022.2 hPa NW 1.6 km/h 6.4 km/h 80% 0 mm
03:09 4.2 °C 1.1 °C 1022.2 hPa NNW 3.2 km/h 4.8 km/h 80% 0 mm
03:14 4.2 °C 1.1 °C 1022.2 hPa NNW 3.2 km/h 9.7 km/h 80% 0 mm
03:19 4.2 °C 1 °C 1022.2 hPa North 4.8 km/h 6.4 km/h 80% 0 mm
03:24 4.1 °C 0.9 °C 1022.6 hPa NNW 3.2 km/h 6.4 km/h 80% 0 mm
03:29 4.1 °C 0.9 °C 1022.6 hPa NNW 1.6 km/h 8 km/h 80% 0 mm
03:34 4.1 °C 0.9 °C 1022.6 hPa NNW 1.6 km/h 8 km/h 80% 0 mm
03:39 4 °C 0.8 °C 1022.2 hPa North 4.8 km/h 8 km/h 80% 0 mm
03:44 4 °C 0.8 °C 1022.6 hPa NNW 3.2 km/h 9.7 km/h 80% 0 mm
03:49 3.9 °C 0.8 °C 1022.2 hPa NNW 4.8 km/h 11.3 km/h 80% 0 mm
03:54 3.9 °C 0.8 °C 1022.2 hPa NNW 1.6 km/h 8 km/h 80% 0 mm
03:59 3.8 °C 0.7 °C 1022.2 hPa NNW 3.2 km/h 8 km/h 80% 0 mm
04:04 3.8 °C 0.7 °C 1022.2 hPa NNW 3.2 km/h 9.7 km/h 80% 0 mm
04:09 3.7 °C 0.6 °C 1022.2 hPa NNW 3.2 km/h 9.7 km/h 80% 0 mm
04:14 3.7 °C 0.7 °C 1022.2 hPa NNW 3.2 km/h 8 km/h 81% 0 mm
04:19 3.6 °C 0.7 °C 1022.2 hPa NNE 3.2 km/h 8 km/h 81% 0 mm
04:24 3.5 °C 0.6 °C 1022.2 hPa Calm   4.8 km/h 81% 0 mm
04:29 3.4 °C 0.5 °C 1022.2 hPa North 1.6 km/h 4.8 km/h 81% 0 mm
04:34 3.3 °C 0.6 °C 1022.6 hPa Calm   3.2 km/h 82% 0 mm
04:39 3.2 °C 0.4 °C 1022.6 hPa Calm   1.6 km/h 82% 0 mm
04:44 3.2 °C 0.4 °C 1022.6 hPa Calm     82% 0 mm
04:49 3.2 °C 0.4 °C 1022.2 hPa NNW 1.6 km/h 3.2 km/h 82% 0 mm
04:54 3.1 °C 0.5 °C 1022.6 hPa Calm   3.2 km/h 83% 0 mm
04:59 3.1 °C 0.5 °C 1022.6 hPa Calm   3.2 km/h 83% 0 mm
05:04 3 °C 0.4 °C 1022.6 hPa Calm     83% 0 mm
05:09 2.9 °C 0.3 °C 1022.6 hPa Calm     83% 0 mm
05:14 2.7 °C 0.1 °C 1022.6 hPa Calm     83% 0 mm
05:19 2.6 °C 0 °C 1022.6 hPa Calm     83% 0 mm
05:24 2.5 °C 0.1 °C 1022.6 hPa Calm     84% 0 mm
05:29 2.3 °C -0.2 °C 1022.6 hPa Calm     84% 0 mm
05:34 2.2 °C -0.3 °C 1022.6 hPa Calm     84% 0 mm
05:39 1.9 °C -0.5 °C 1022.6 hPa Calm     84% 0 mm
05:44 1.8 °C -0.5 °C 1022.6 hPa Calm     85% 0 mm
05:49 1.6 °C -0.7 °C 1022.6 hPa Calm     85% 0 mm
05:54 1.4 °C -0.7 °C 1022.6 hPa Calm     86% 0 mm
05:59 1.3 °C -0.8 °C 1022.6 hPa North 1.6 km/h 3.2 km/h 86% 0 mm
06:04 1.3 °C -0.8 °C 1022.6 hPa Calm   3.2 km/h 86% 0 mm
06:09 1.3 °C -0.8 °C 1022.9 hPa Calm   3.2 km/h 86% 0 mm
06:14 1.3 °C -0.8 °C 1022.9 hPa Calm     86% 0 mm
06:19 1.2 °C -0.9 °C 1022.9 hPa Calm     86% 0 mm
06:24 1.1 °C -0.9 °C 1022.9 hPa Calm     86% 0 mm
06:29 1.1 °C -1 °C 1022.6 hPa Calm     86% 0 mm
06:34 0.9 °C -1.1 °C 1022.9 hPa Calm   3.2 km/h 86% 0 mm
06:39 0.8 °C -1.2 °C 1022.9 hPa Calm   3.2 km/h 86% 0 mm
06:44 0.8 °C -1.2 °C 1022.9 hPa Calm   1.6 km/h 86% 0 mm
06:49 0.7 °C -1.3 °C 1023.2 hPa Calm     86% 0 mm
06:54 0.7 °C -1.4 °C 1023.2 hPa Calm     86% 0 mm
06:59 0.6 °C -1.5 °C 1023.2 hPa Calm     86% 0 mm
07:04 0.4 °C -1.6 °C 1023.2 hPa Calm     86% 0 mm
07:09 0.3 °C -1.7 °C 1023.2 hPa Calm     86% 0 mm
07:14 0.2 °C -2 °C 1023.2 hPa Calm     85% 0 mm
07:19 0.2 °C -2.1 °C 1023.2 hPa Calm     85% 0 mm
07:24 0.1 °C -2.1 °C 1023.6 hPa Calm     85% 0 mm
07:29 0.1 °C -2 °C 1023.6 hPa Calm     86% 0 mm
07:34 0 °C -2.1 °C 1023.6 hPa Calm     86% 0 mm
07:39 -0.1 °C -2.1 °C 1023.6 hPa Calm     86% 0 mm
07:44 -0.1 °C -2.1 °C 1023.6 hPa Calm     86% 0 mm
07:49 -0.1 °C -2.2 °C 1023.9 hPa Calm     86% 0 mm
07:54 -0.1 °C -1.9 °C 1023.9 hPa Calm     87% 0 mm
07:59 0.4 °C -1.2 °C 1023.9 hPa Calm     89% 0 mm
08:04 1.7 °C 0.1 °C 1023.9 hPa Calm     89% 0 mm
08:09 2.2 °C 0.4 °C 1024.3 hPa Calm     88% 0 mm
08:14 2.4 °C 0.5 °C 1024.3 hPa Calm     87% 0 mm
08:19 2.6 °C 0.6 °C 1024.3 hPa Calm   1.6 km/h 87% 0 mm
08:24 2.7 °C 0.6 °C 1024.3 hPa Calm     86% 0 mm
08:29 3 °C 0.9 °C 1024.3 hPa Calm     86% 0 mm
08:34 3.4 °C 0.9 °C 1024.3 hPa Calm     84% 0 mm
08:39 3.7 °C 1.1 °C 1024.3 hPa Calm     83% 0 mm
08:44 4.3 °C 1.5 °C 1024.6 hPa Calm   1.6 km/h 82% 0 mm
08:49 4.7 °C 1.7 °C 1024.6 hPa Calm   3.2 km/h 81% 0 mm
08:54 5.1 °C 1.8 °C 1024.6 hPa Calm   3.2 km/h 79% 0 mm
08:59 5.1 °C 1.7 °C 1024.6 hPa Calm     79% 0 mm
09:04 5.2 °C 1.8 °C 1024.6 hPa Calm   4.8 km/h 79% 0 mm
09:09 5.3 °C 2.1 °C 1024.6 hPa ESE 3.2 km/h 6.4 km/h 80% 0 mm
09:14 5.6 °C 2.1 °C 1024.6 hPa ESE 1.6 km/h 6.4 km/h 78% 0 mm
09:19 5.9 °C 2.2 °C 1024.6 hPa East 1.6 km/h 4.8 km/h 77% 0 mm
09:24 5.9 °C 2.2 °C 1024.6 hPa NE 3.2 km/h 4.8 km/h 77% 0 mm
09:29 6.3 °C 2.6 °C 1024.6 hPa NE 1.6 km/h 4.8 km/h 77% 0 mm
09:34 6.4 °C 2.5 °C 1024.9 hPa Calm   4.8 km/h 76% 0 mm
09:39 6.8 °C 2.8 °C 1024.6 hPa Calm   6.4 km/h 76% 0 mm
09:44 6.7 °C 2.6 °C 1024.9 hPa ENE 1.6 km/h 6.4 km/h 75% 0 mm
09:49 6.9 °C 2.9 °C 1024.6 hPa ENE 1.6 km/h 8 km/h 76% 0 mm
09:54 6.8 °C 2.5 °C 1024.6 hPa ENE 1.6 km/h 8 km/h 74% 0 mm
09:59 7.3 °C 3.4 °C 1024.6 hPa ENE 3.2 km/h 8 km/h 76% 0 mm
10:04 6.9 °C 2.4 °C 1024.9 hPa NNE 1.6 km/h 6.4 km/h 73% 0 mm
10:09 7.4 °C 2.9 °C 1024.9 hPa NNW 1.6 km/h 4.8 km/h 73% 0 mm
10:14 7.9 °C 3.4 °C 1024.9 hPa NNE 3.2 km/h 8 km/h 73% 0 mm
10:19 7.6 °C 2.7 °C 1024.9 hPa NNE 3.2 km/h 4.8 km/h 71% 0 mm
10:24 8.4 °C 3.4 °C 1024.9 hPa East 3.2 km/h 6.4 km/h 71% 0 mm
10:29 8.4 °C 3.4 °C 1024.9 hPa East 4.8 km/h 8 km/h 71% 0 mm
10:34 8.5 °C 3.3 °C 1024.9 hPa Calm   8 km/h 70% 0 mm
10:39 8.4 °C 2.4 °C 1025.3 hPa NNE 3.2 km/h 8 km/h 66% 0 mm
10:44 8.7 °C 3.1 °C 1025.3 hPa ENE 3.2 km/h 12.9 km/h 68% 0 mm
10:49 8.7 °C 2.5 °C 1025.3 hPa ENE 3.2 km/h 12.9 km/h 65% 0 mm
10:54 8.8 °C 1.9 °C 1025.3 hPa North 1.6 km/h 8 km/h 62% 0 mm
10:59 9.3 °C 1.9 °C 1025.3 hPa NNW 3.2 km/h 9.7 km/h 60% 0 mm
11:04 9.6 °C 2.2 °C 1024.9 hPa NNW 4.8 km/h 11.3 km/h 60% 0 mm
11:09 9.3 °C 0.7 °C 1024.9 hPa NNW 3.2 km/h 11.3 km/h 55% 0 mm
11:14 9.1 °C 0.2 °C 1024.9 hPa South 1.6 km/h 11.3 km/h 54% 0 mm
11:19 9.4 °C 0.3 °C 1024.9 hPa NNE 6.4 km/h 9.7 km/h 53% 0 mm
11:24 9.6 °C 0.2 °C 1025.3 hPa NNE 4.8 km/h 11.3 km/h 52% 0 mm
11:29 9.3 °C 0.5 °C 1025.3 hPa North 3.2 km/h 8 km/h 54% 0 mm
11:34 9.4 °C -0.4 °C 1025.3 hPa NW 1.6 km/h 8 km/h 50% 0 mm
11:39 9.6 °C -0.4 °C 1025.3 hPa NNE 3.2 km/h 8 km/h 50% 0 mm
11:44 9.6 °C 0.4 °C 1025.3 hPa NNE 6.4 km/h 11.3 km/h 53% 0 mm
11:49 9.6 °C -0.6 °C 1025.3 hPa North 4.8 km/h 11.3 km/h 49% 0 mm
11:54 9.6 °C -0.1 °C 1024.9 hPa NW 4.8 km/h 11.3 km/h 51% 0 mm
11:59 9.8 °C -0.1 °C 1024.9 hPa West 4.8 km/h 8 km/h 50% 0 mm
12:04 9.9 °C -0.3 °C 1024.9 hPa NW 4.8 km/h 11.3 km/h 49% 0 mm
12:09 10.2 °C -0.7 °C 1024.9 hPa West 4.8 km/h 20.9 km/h 47% 0 mm
12:14 10.4 °C 0.9 °C 1025.3 hPa WNW 9.7 km/h 9.7 km/h 52% 0 mm
12:19 10.7 °C 0.7 °C 1024.9 hPa NNW 14.5 km/h 17.7 km/h 50% 0 mm
12:24 10.6 °C 0.3 °C 1024.9 hPa North 8 km/h 17.7 km/h 49% 0 mm
12:29 10.1 °C -0.1 °C 1024.9 hPa NW 3.2 km/h 16.1 km/h 49% 0 mm
12:34 10.3 °C 0.3 °C 1024.9 hPa NNW 3.2 km/h 11.3 km/h 50% 0 mm
12:39 9.8 °C -0.7 °C 1024.9 hPa North 8 km/h 9.7 km/h 48% 0 mm
12:44 10.2 °C 1 °C 1024.6 hPa NNE 6.4 km/h 8 km/h 53% 0 mm
12:49 10.6 °C 0.6 °C 1024.6 hPa North 6.4 km/h 11.3 km/h 50% 0 mm
12:54 10.4 °C 0.2 °C 1024.6 hPa NW 4.8 km/h 12.9 km/h 49% 0 mm
12:59 10.9 °C 0.3 °C 1024.6 hPa NW 6.4 km/h 16.1 km/h 48% 0 mm
13:04 10.4 °C 0.4 °C 1024.6 hPa NW 6.4 km/h 16.1 km/h 50% 0 mm
13:09 9.9 °C -0.6 °C 1024.6 hPa North 6.4 km/h 17.7 km/h 48% 0 mm
13:14 10 °C -0.2 °C 1024.6 hPa North 8 km/h 17.7 km/h 49% 0 mm
13:19 9.8 °C -0.7 °C 1024.6 hPa NE 6.4 km/h 17.7 km/h 48% 0 mm
13:24 9.9 °C 0 °C 1024.6 hPa NNE 8 km/h 17.7 km/h 50% 0 mm
13:29 10.1 °C -1.1 °C 1024.6 hPa NNE 6.4 km/h 22.5 km/h 46% 0 mm
13:34 9.9 °C -0.6 °C 1024.6 hPa NW 6.4 km/h 14.5 km/h 48% 0 mm
13:39 10.8 °C 0.6 °C 1024.6 hPa North 4.8 km/h 11.3 km/h 49% 0 mm
13:44 10.4 °C 0.7 °C 1024.6 hPa NNE 4.8 km/h 14.5 km/h 51% 0 mm
13:49 10.2 °C 1.1 °C 1024.6 hPa NNE 9.7 km/h 14.5 km/h 53% 0 mm
13:54 9.9 °C 0.8 °C 1024.3 hPa North 6.4 km/h 16.1 km/h 53% 0 mm
13:59 9.9 °C 0.6 °C 1024.6 hPa North 6.4 km/h 16.1 km/h 52% 0 mm
14:04 9.9 °C 0.3 °C 1024.3 hPa NNE 6.4 km/h 11.3 km/h 51% 0 mm
14:09 10.2 °C 1.5 °C 1024.3 hPa ENE 11.3 km/h 12.9 km/h 55% 0 mm
14:14 10.2 °C 1.1 °C 1024.3 hPa NNE 6.4 km/h 12.9 km/h 53% 0 mm
14:19 10.1 °C 1.2 °C 1024.3 hPa North 4.8 km/h 11.3 km/h 54% 0 mm
14:24 10.1 °C 0.4 °C 1024.3 hPa North 6.4 km/h 12.9 km/h 51% 0 mm
14:29 9.8 °C 0.7 °C 1024.3 hPa NNE 8 km/h 12.9 km/h 53% 0 mm
14:34 9.8 °C 0.9 °C 1024.3 hPa NNE 6.4 km/h 12.9 km/h 54% 0 mm
14:39 9.9 °C 1 °C 1024.3 hPa NNE 4.8 km/h 14.5 km/h 54% 0 mm
14:44 10.7 °C 1.5 °C 1024.3 hPa North 8 km/h 17.7 km/h 53% 0 mm
14:49 11.6 °C 1.5 °C 1024.3 hPa NW 3.2 km/h 11.3 km/h 50% 0 mm
14:54 11 °C 0.7 °C 1024.3 hPa North 8 km/h 14.5 km/h 49% 0 mm
14:59 10.2 °C 0.8 °C 1024.3 hPa North 6.4 km/h 14.5 km/h 52% 0 mm
15:04 10.4 °C 0.4 °C 1024.3 hPa NNE 6.4 km/h 16.1 km/h 50% 0 mm
15:09 10.4 °C 1.2 °C 1024.3 hPa NNE 6.4 km/h 16.1 km/h 53% 0 mm
15:14 10.8 °C 1.6 °C 1024.3 hPa NE 11.3 km/h 17.7 km/h 53% 0 mm
15:19 10.7 °C 0.7 °C 1024.3 hPa North 8 km/h 16.1 km/h 50% 0 mm
15:24 11.4 °C 0.8 °C 1024.3 hPa NNW 11.3 km/h 16.1 km/h 48% 0 mm
15:29 10.9 °C -0.3 °C 1024.3 hPa North 8 km/h 17.7 km/h 46% 0 mm
15:34 10.6 °C 0 °C 1024.3 hPa NNW 8 km/h 17.7 km/h 48% 0 mm
15:39 10.7 °C 0.7 °C 1024.3 hPa NNW 8 km/h 17.7 km/h 50% 0 mm
15:44 10.9 °C 0.6 °C 1024.3 hPa NW 6.4 km/h 12.9 km/h 49% 0 mm
15:49 11.2 °C 0.3 °C 1024.6 hPa NW 8 km/h 14.5 km/h 47% 0 mm
15:54 10.7 °C 0.4 °C 1024.6 hPa NNW 6.4 km/h 14.5 km/h 49% 0 mm
15:59 10.7 °C 0.4 °C 1024.6 hPa NW 11.3 km/h 16.1 km/h 49% 0 mm
16:04 10.7 °C 0.9 °C 1024.6 hPa North 9.7 km/h 12.9 km/h 51% 0 mm
16:09 10.6 °C 0.6 °C 1024.6 hPa NNE 6.4 km/h 17.7 km/h 50% 0 mm
16:14 10.4 °C 0.4 °C 1024.9 hPa North 6.4 km/h 11.3 km/h 50% 0 mm
16:19 10.6 °C 0.8 °C 1024.9 hPa NNE 6.4 km/h 12.9 km/h 51% 0 mm
16:24 10.2 °C 0.2 °C 1024.9 hPa North 11.3 km/h 16.1 km/h 50% 0 mm
16:29 10.3 °C 0.3 °C 1024.9 hPa North 9.7 km/h 16.1 km/h 50% 0 mm
16:34 9.8 °C -0.4 °C 1024.9 hPa North 6.4 km/h 16.1 km/h 49% 0 mm
16:39 9.8 °C -0.4 °C 1024.9 hPa NNW 6.4 km/h 14.5 km/h 49% 0 mm
16:44 10.1 °C 0.2 °C 1024.9 hPa NNW 6.4 km/h 19.3 km/h 50% 0 mm
16:49 10.5 °C 0.2 °C 1024.9 hPa NNW 6.4 km/h 19.3 km/h 49% 0 mm
16:54 10.1 °C -0.8 °C 1024.9 hPa NNW 4.8 km/h 12.9 km/h 47% 0 mm
16:59 10.1 °C -0.1 °C 1024.9 hPa NE 3.2 km/h 14.5 km/h 49% 0 mm
17:04 10.1 °C -0.2 °C 1024.9 hPa North 8 km/h 14.5 km/h 49% 0 mm
17:09 9.9 °C -0.3 °C 1024.6 hPa North 8 km/h 16.1 km/h 49% 0 mm
17:14 9.8 °C -0.2 °C 1024.9 hPa North 8 km/h 16.1 km/h 50% 0 mm
17:19 9.6 °C -0.6 °C 1024.9 hPa North 8 km/h 16.1 km/h 49% 0 mm
17:24 9.5 °C -0.7 °C 1024.9 hPa NNW 17.7 km/h 17.7 km/h 49% 0 mm
17:29 9.4 °C -0.4 °C 1024.9 hPa NNW 12.9 km/h 19.3 km/h 50% 0 mm
17:34 9.3 °C -0.8 °C 1024.9 hPa NNW 3.2 km/h 16.1 km/h 49% 0 mm
17:39 9.3 °C -0.9 °C 1024.9 hPa North 6.4 km/h 16.1 km/h 49% 0 mm
17:44 9.2 °C -0.7 °C 1024.9 hPa NNE 8 km/h 17.7 km/h 50% 0 mm
17:49 9.1 °C -0.8 °C 1024.9 hPa NNE 8 km/h 17.7 km/h 50% 0 mm
17:54 9.1 °C -0.8 °C 1024.9 hPa NNE 8 km/h 11.3 km/h 50% 0 mm
17:59 8.9 °C -1 °C 1024.9 hPa North 3.2 km/h 11.3 km/h 50% 0 mm
18:04 8.9 °C -0.9 °C 1025.3 hPa NNE 4.8 km/h 14.5 km/h 50% 0 mm
18:09 8.8 °C -1.1 °C 1025.3 hPa NNE 8 km/h 16.1 km/h 50% 0 mm
18:14 8.8 °C -1.1 °C 1025.3 hPa North 6.4 km/h 16.1 km/h 50% 0 mm
18:19 8.7 °C -1.2 °C 1025.3 hPa North 6.4 km/h 16.1 km/h 50% 0 mm
18:24 8.6 °C -0.7 °C 1025.3 hPa NNE 6.4 km/h 14.5 km/h 52% 0 mm
18:29 8.4 °C -0.8 °C 1025.3 hPa NNE 8 km/h 12.9 km/h 52% 0 mm
18:34 8.3 °C -0.8 °C 1025.3 hPa NNE 4.8 km/h 9.7 km/h 53% 0 mm
18:39 8.2 °C -1.1 °C 1025.3 hPa North 6.4 km/h 12.9 km/h 52% 0 mm
18:44 8.2 °C -1.1 °C 1025.3 hPa North 6.4 km/h 14.5 km/h 52% 0 mm
18:49 8.2 °C -0.8 °C 1025.3 hPa NNE 6.4 km/h 22.5 km/h 53% 0 mm
18:54 8.1 °C -0.4 °C 1025.3 hPa NE 6.4 km/h 22.5 km/h 55% 0 mm
18:59 7.9 °C -0.8 °C 1025.3 hPa North 9.7 km/h 11.3 km/h 54% 0 mm
19:04 7.8 °C -0.7 °C 1025.3 hPa NNE 8 km/h 12.9 km/h 55% 0 mm
19:09 7.7 °C -0.8 °C 1025.3 hPa ENE 8 km/h 16.1 km/h 55% 0 mm
19:14 7.6 °C -0.9 °C 1025.3 hPa NNE 6.4 km/h 17.7 km/h 55% 0 mm
19:19 7.5 °C -0.9 °C 1025.3 hPa NE 8 km/h 17.7 km/h 55% 0 mm
19:24 7.4 °C -0.8 °C 1025.3 hPa NE 6.4 km/h 16.1 km/h 56% 0 mm
19:29 7.4 °C -0.8 °C 1025.3 hPa NE 4.8 km/h 11.3 km/h 56% 0 mm
19:34 7.3 °C -0.9 °C 1025.3 hPa NE 6.4 km/h 16.1 km/h 56% 0 mm
19:39 7.2 °C -1 °C 1025.3 hPa NE 6.4 km/h 16.1 km/h 56% 0 mm
19:44 7.2 °C -1.1 °C 1025.3 hPa NE 6.4 km/h 14.5 km/h 56% 0 mm
19:49 7.1 °C -1.1 °C 1025.3 hPa NNE 6.4 km/h 12.9 km/h 56% 0 mm
19:54 7 °C -0.9 °C 1025.6 hPa ENE 3.2 km/h 11.3 km/h 57% 0 mm
19:59 6.9 °C -1 °C 1025.6 hPa NNE 3.2 km/h 11.3 km/h 57% 0 mm
20:04 6.8 °C -1.1 °C 1025.6 hPa NNE 4.8 km/h 8 km/h 57% 0 mm
20:09 6.8 °C -0.9 °C 1025.6 hPa NE 3.2 km/h 8 km/h 58% 0 mm
20:14 6.7 °C -1 °C 1026 hPa NE 4.8 km/h 9.7 km/h 58% 0 mm
20:19 6.7 °C -1 °C 1025.6 hPa NE 4.8 km/h 8 km/h 58% 0 mm
20:24 6.7 °C -1 °C 1026 hPa NE 4.8 km/h 8 km/h 58% 0 mm
20:29 6.7 °C -1.3 °C 1026 hPa NE 4.8 km/h 11.3 km/h 57% 0 mm
20:34 6.6 °C -1.1 °C 1026 hPa NE 6.4 km/h 14.5 km/h 58% 0 mm
20:39 6.4 °C -1.2 °C 1026.3 hPa NE 4.8 km/h 14.5 km/h 58% 0 mm
20:44 6.3 °C -1.3 °C 1026.3 hPa NE 3.2 km/h 9.7 km/h 58% 0 mm
20:49 6.3 °C -1.2 °C 1026.3 hPa NNE 1.6 km/h 6.4 km/h 59% 0 mm
20:54 6.2 °C -1.3 °C 1026 hPa NNE 3.2 km/h 8 km/h 59% 0 mm
20:59 6.1 °C -1.1 °C 1026.3 hPa NE 1.6 km/h 6.4 km/h 60% 0 mm
21:04 6.1 °C -1.4 °C 1026.3 hPa NE 4.8 km/h 6.4 km/h 59% 0 mm
21:09 6 °C -1.2 °C 1026.3 hPa NE 4.8 km/h 6.4 km/h 60% 0 mm
21:14 5.9 °C -1.3 °C 1026 hPa NE 8 km/h 8 km/h 60% 0 mm
21:19 5.8 °C -1.3 °C 1026 hPa ENE 6.4 km/h 11.3 km/h 60% 0 mm
21:24 5.8 °C -1.1 °C 1026 hPa NE 6.4 km/h 11.3 km/h 61% 0 mm
21:29 5.7 °C -1.2 °C 1026 hPa NE 6.4 km/h 12.9 km/h 61% 0 mm
21:34 5.6 °C -1.4 °C 1025.6 hPa NE 6.4 km/h 12.9 km/h 61% 0 mm
21:39 5.5 °C -1.2 °C 1026 hPa NE 9.7 km/h 16.1 km/h 62% 0 mm
21:44 5.5 °C -1.2 °C 1026 hPa NE 6.4 km/h 16.1 km/h 62% 0 mm
21:49 5.4 °C -1.3 °C 1026 hPa NE 8 km/h 16.1 km/h 62% 0 mm
21:54 5.3 °C -1.2 °C 1026 hPa ENE 11.3 km/h 12.9 km/h 63% 0 mm
21:59 5.2 °C -1.3 °C 1025.6 hPa East 9.7 km/h 12.9 km/h 63% 0 mm
22:04 5.1 °C -1.4 °C 1025.6 hPa NE 9.7 km/h 9.7 km/h 63% 0 mm
22:09 5 °C -1.4 °C 1025.6 hPa NE 3.2 km/h 14.5 km/h 63% 0 mm
22:14 4.9 °C -1.3 °C 1025.6 hPa NE 3.2 km/h 9.7 km/h 64% 0 mm
22:19 4.8 °C -1.4 °C 1025.6 hPa ENE 4.8 km/h 12.9 km/h 64% 0 mm
22:24 4.7 °C -1.3 °C 1025.6 hPa ENE 3.2 km/h 12.9 km/h 65% 0 mm
22:29 4.7 °C -1.3 °C 1025.6 hPa ENE 4.8 km/h 9.7 km/h 65% 0 mm
22:34 4.7 °C -1.3 °C 1025.3 hPa NE 4.8 km/h 11.3 km/h 65% 0 mm
22:39 4.6 °C -1.4 °C 1025.3 hPa ENE 4.8 km/h 11.3 km/h 65% 0 mm
22:44 4.6 °C -1.4 °C 1025.3 hPa ENE 4.8 km/h 9.7 km/h 65% 0 mm
22:49 4.6 °C -1.4 °C 1024.9 hPa NE 4.8 km/h 11.3 km/h 65% 0 mm
22:54 4.4 °C -1.6 °C 1024.9 hPa NE 3.2 km/h 8 km/h 65% 0 mm
22:59 4.4 °C -1.6 °C 1024.9 hPa NE 4.8 km/h 9.7 km/h 65% 0 mm
23:04 4.4 °C -1.8 °C 1024.9 hPa ENE 4.8 km/h 9.7 km/h 64% 0 mm
23:09 4.3 °C -1.7 °C 1024.6 hPa East 3.2 km/h 8 km/h 65% 0 mm
23:14 4.2 °C -1.8 °C 1024.6 hPa ENE 3.2 km/h 12.9 km/h 65% 0 mm
23:19 4.1 °C -1.9 °C 1024.6 hPa ENE 4.8 km/h 12.9 km/h 65% 0 mm
23:24 4.1 °C -1.9 °C 1024.6 hPa East 4.8 km/h 11.3 km/h 65% 0 mm
23:29 3.9 °C -2.1 °C 1024.6 hPa East 3.2 km/h 11.3 km/h 65% 0 mm
23:34 3.8 °C -2.2 °C 1024.6 hPa ENE 3.2 km/h 9.7 km/h 65% 0 mm
23:39 3.6 °C -2.2 °C 1024.6 hPa East 3.2 km/h 8 km/h 66% 0 mm
23:44 3.5 °C -2.1 °C 1024.6 hPa East 1.6 km/h 8 km/h 67% 0 mm
23:49 3.4 °C -2.1 °C 1024.6 hPa East 3.2 km/h 8 km/h 67% 0 mm
23:54 3.3 °C -2.2 °C 1024.3 hPa East 1.6 km/h 8 km/h 67% 0 mm
23:59 3.3 °C -2.1 °C 1024.3 hPa ENE 6.4 km/h 8 km/h 68% 0 mm
Buffalo, New York, USA
Compliments of Weather Underground - 2.5 mb